Time;durP1;ratioP1;P1;durP2;ratioP2;P2;SDS_P1;SDS_P2;PMS_P1;PMS_P2;Temp;Humidity;BMP_temperature;BMP_pressure;BME280_temperature;BME280_humidity;BME280_pressure;Samples;Min_cycle;Max_cycle;Signal;HPM_P1;HPM_P2
2022/08/21 00:01:43;;;;;;;6.97;2.08;;;;;16.20;101226.00;;;;12696540;23;20668;-77
2022/08/21 00:06:45;;;;;;;7.73;2.10;;;;;16.10;101222.00;;;;12673398;23;20198;-77
2022/08/21 00:11:47;;;;;;;4.38;2.42;;;;;16.00;101220.00;;;;12693244;23;20274;-78
2022/08/21 00:16:50;;;;;;;6.73;2.13;;;;;16.00;101208.00;;;;12691968;23;20168;-77
2022/08/21 00:21:53;;;;;;;4.87;1.80;;;;;15.90;101205.00;;;;12669191;23;20168;-77
2022/08/21 00:26:55;;;;;;;9.50;2.60;;;;;15.70;101203.00;;;;12624958;23;20187;-78
2022/08/21 00:31:58;;;;;;;5.87;2.20;;;;;15.70;101199.00;;;;12718465;23;20528;-77
2022/08/21 00:37:00;;;;;;;4.57;2.00;;;;;15.60;101201.00;;;;12743409;23;20164;-78
2022/08/21 00:42:02;;;;;;;5.43;2.15;;;;;15.50;101206.00;;;;12669760;23;20190;-77
2022/08/21 00:47:04;;;;;;;4.73;1.90;;;;;15.30;101212.00;;;;12801741;22;20198;-77
2022/08/21 00:52:10;;;;;;;6.07;2.33;;;;;15.10;101218.00;;;;12650305;23;20657;-78
2022/08/21 00:57:16;;;;;;;6.27;2.30;;;;;14.90;101208.00;;;;12652024;23;20176;-77
2022/08/21 01:02:20;;;;;;;6.40;2.60;;;;;14.80;101216.00;;;;12651901;23;20203;-78
2022/08/21 01:07:22;;;;;;;6.73;2.83;;;;;14.70;101207.00;;;;12718715;23;20172;-77
2022/08/21 01:12:28;;;;;;;6.80;2.10;;;;;14.50;101209.00;;;;12696608;23;20187;-77
2022/08/21 01:17:31;;;;;;;6.40;2.53;;;;;14.40;101213.00;;;;12626270;23;20241;-77
2022/08/21 01:22:33;;;;;;;5.17;2.33;;;;;14.30;101217.00;;;;12699222;23;20175;-77
2022/08/21 01:27:36;;;;;;;6.77;2.40;;;;;14.20;101217.00;;;;12669201;23;20174;-78
2022/08/21 01:32:38;;;;;;;9.20;2.60;;;;;14.20;101215.00;;;;12697066;23;20274;-78
2022/08/21 01:37:41;;;;;;;6.80;2.60;;;;;14.20;101219.00;;;;12653332;23;20175;-77
2022/08/21 01:42:45;;;;;;;5.40;2.23;;;;;14.10;101221.00;;;;12625325;23;20662;-78
2022/08/21 01:47:47;;;;;;;8.43;2.50;;;;;14.10;101214.00;;;;12626917;23;20187;-77
2022/08/21 01:52:49;;;;;;;8.00;2.57;;;;;14.00;101212.00;;;;12627863;23;20212;-77
2022/08/21 01:57:51;;;;;;;9.97;2.60;;;;;14.00;101213.00;;;;12676178;23;20619;-78
2022/08/21 02:02:53;;;;;;;6.50;2.43;;;;;14.00;101215.00;;;;12698567;23;20184;-77
2022/08/21 02:07:55;;;;;;;9.97;2.57;;;;;13.90;101207.00;;;;12675613;23;20180;-77
2022/08/21 02:13:00;;;;;;;8.80;2.30;;;;;13.90;101204.00;;;;12719177;23;20511;-77
2022/08/21 02:18:06;;;;;;;6.50;2.40;;;;;13.90;101208.00;;;;12694931;23;20219;-77
2022/08/21 02:23:10;;;;;;;6.03;2.07;;;;;13.90;101205.00;;;;12650824;23;20233;-78
2022/08/21 02:28:14;;;;;;;5.87;2.40;;;;;13.80;101212.00;;;;12626248;23;20196;-78
2022/08/21 02:33:16;;;;;;;12.37;3.00;;;;;13.70;101202.00;;;;12670760;23;20199;-78
2022/08/21 02:38:26;;;;;;;6.43;2.60;;;;;13.60;101205.00;;;;12674321;23;20168;-78
2022/08/21 02:43:28;;;;;;;9.23;2.90;;;;;13.60;101203.00;;;;12648221;23;20894;-78
2022/08/21 02:48:32;;;;;;;8.50;2.73;;;;;13.50;101203.00;;;;12650702;23;20179;-77
2022/08/21 02:53:35;;;;;;;8.67;2.40;;;;;13.40;101197.00;;;;12649008;23;20261;-77
2022/08/21 02:58:41;;;;;;;8.80;3.53;;;;;13.40;101191.00;;;;12693309;23;20168;-77
2022/08/21 03:03:45;;;;;;;7.80;2.63;;;;;13.40;101205.00;;;;12651438;23;20198;-78
2022/08/21 03:08:47;;;;;;;10.93;2.80;;;;;13.40;101195.00;;;;12694795;23;20574;-78
2022/08/21 03:13:49;;;;;;;7.73;3.07;;;;;13.40;101195.00;;;;12627062;23;20196;-77
2022/08/21 03:18:52;;;;;;;5.93;2.83;;;;;13.40;101189.00;;;;12720896;23;20389;-77
2022/08/21 03:23:53;;;;;;;7.47;3.20;;;;;13.40;101190.00;;;;12650541;23;20184;-77
2022/08/21 03:28:57;;;;;;;6.07;2.83;;;;;13.40;101196.00;;;;12674769;23;20176;-78
2022/08/21 03:33:59;;;;;;;8.30;2.47;;;;;13.40;101186.00;;;;12720315;23;20273;-77
2022/08/21 03:39:01;;;;;;;8.57;2.83;;;;;13.30;101185.00;;;;12676344;23;20534;-78
2022/08/21 03:44:03;;;;;;;6.93;2.60;;;;;13.30;101183.00;;;;12652418;23;20175;-77
2022/08/21 03:49:06;;;;;;;5.67;2.40;;;;;13.30;101175.00;;;;12651981;23;20232;-77
2022/08/21 03:54:08;;;;;;;12.73;2.77;;;;;13.30;101181.00;;;;12674274;23;20242;-77
2022/08/21 03:59:10;;;;;;;9.13;2.47;;;;;13.30;101170.00;;;;12699394;23;20266;-77
2022/08/21 04:04:12;;;;;;;8.60;1.87;;;;;13.30;101173.00;;;;12673391;23;20172;-78
2022/08/21 04:09:14;;;;;;;9.73;2.40;;;;;13.30;101180.00;;;;12674316;23;20183;-77
2022/08/21 04:14:17;;;;;;;8.97;2.83;;;;;13.30;101178.00;;;;12650412;23;20189;-77
2022/08/21 04:19:19;;;;;;;7.00;2.20;;;;;13.30;101185.00;;;;12675569;23;20183;-78
2022/08/21 04:24:21;;;;;;;7.63;2.37;;;;;13.30;101185.00;;;;12717958;23;20172;-77
2022/08/21 04:29:23;;;;;;;8.17;2.60;;;;;13.30;101183.00;;;;12625297;23;20176;-77
2022/08/21 04:34:25;;;;;;;8.13;2.33;;;;;13.30;101187.00;;;;12694454;23;20168;-77
2022/08/21 04:39:27;;;;;;;7.37;2.57;;;;;13.30;101199.00;;;;12650665;23;20203;-77
2022/08/21 04:44:30;;;;;;;4.67;2.27;;;;;13.30;101193.00;;;;12672682;23;20251;-77
2022/08/21 04:49:32;;;;;;;4.40;2.47;;;;;13.30;101199.00;;;;12650620;23;20937;-77
2022/08/21 04:54:35;;;;;;;8.37;2.57;;;;;13.40;101208.00;;;;12649053;23;20199;-77
2022/08/21 04:59:45;;;;;;;7.83;2.50;;;;;13.50;101205.00;;;;12625798;23;20180;-77
2022/08/21 05:04:51;;;;;;;11.93;2.80;;;;;13.60;101208.00;;;;12692931;23;20239;-77
2022/08/21 05:09:53;;;;;;;5.57;2.30;;;;;13.80;101206.00;;;;12692981;23;20187;-78
2022/08/21 05:14:55;;;;;;;9.53;2.37;;;;;14.00;101198.00;;;;12691687;23;20741;-77
2022/08/21 05:19:57;;;;;;;12.00;3.00;;;;;14.20;101207.00;;;;12648420;23;20184;-77
2022/08/21 05:24:59;;;;;;;8.20;2.63;;;;;14.50;101219.00;;;;12690461;23;20607;-76
2022/08/21 05:30:03;;;;;;;8.40;2.70;;;;;14.90;101212.00;;;;12667320;23;20183;-77
2022/08/21 05:35:07;;;;;;;8.77;2.33;;;;;15.30;101211.00;;;;12620567;23;20243;-76
2022/08/21 05:40:10;;;;;;;6.30;2.20;;;;;15.80;101213.00;;;;12746879;23;20213;-77
2022/08/21 05:45:24;;;;;;;5.73;2.33;;;;;16.00;101217.00;;;;12741269;22;20179;-77
2022/08/21 05:50:44;;;;;;;6.27;2.30;;;;;16.10;101226.00;;;;12669457;23;20191;-78
2022/08/21 05:55:47;;;;;;;6.87;2.80;;;;;16.30;101230.00;;;;12713932;23;20237;-77
2022/08/21 06:00:50;;;;;;;4.90;2.17;;;;;16.60;101224.00;;;;12713484;23;20195;-77
2022/08/21 06:05:53;;;;;;;4.50;1.90;;;;;17.00;101221.00;;;;12713893;23;20168;-77
2022/08/21 06:10:58;;;;;;;9.75;2.45;;;;;17.40;101220.00;;;;12713848;23;20202;-78
2022/08/21 06:16:08;;;;;;;9.10;2.25;;;;;18.10;101223.00;;;;12691764;23;20195;-77
2022/08/21 06:21:11;;;;;;;4.47;1.83;;;;;18.90;101228.00;;;;12718321;23;20225;-78
2022/08/21 06:26:14;;;;;;;8.88;2.03;;;;;19.60;101228.00;;;;12673053;23;20202;-77
2022/08/21 06:31:24;;;;;;;5.50;2.35;;;;;20.20;101238.00;;;;12644737;23;20233;-78
2022/08/21 06:36:26;;;;;;;8.15;1.75;;;;;20.80;101229.00;;;;12692597;23;20636;-77
2022/08/21 06:41:28;;;;;;;7.07;1.88;;;;;21.00;101234.00;;;;12715445;23;20170;-77
2022/08/21 06:46:31;;;;;;;8.18;1.70;;;;;21.20;101238.00;;;;12646579;23;20179;-78
2022/08/21 06:51:33;;;;;;;7.40;2.20;;;;;21.50;101233.00;;;;12669877;23;20252;-78
2022/08/21 06:56:37;;;;;;;7.20;1.77;;;;;21.40;101236.00;;;;12694137;23;20201;-78
2022/08/21 07:01:40;;;;;;;6.00;2.20;;;;;21.70;101237.00;;;;12647382;23;20176;-78
2022/08/21 07:06:42;;;;;;;5.22;1.85;;;;;22.00;101233.00;;;;12690611;23;20681;-78
2022/08/21 07:11:49;;;;;;;7.55;1.80;;;;;22.30;101234.00;;;;12645983;23;20207;-78
2022/08/21 07:16:51;;;;;;;8.32;2.00;;;;;22.60;101240.00;;;;12671780;23;20180;-77
2022/08/21 07:21:58;;;;;;;6.70;1.83;;;;;23.00;101231.00;;;;12647611;23;20682;-78
2022/08/21 07:27:01;;;;;;;7.90;2.33;;;;;23.20;101228.00;;;;12647698;23;20187;-78
2022/08/21 07:32:03;;;;;;;7.68;1.77;;;;;23.20;101221.00;;;;12739395;23;20245;-78
2022/08/21 07:37:05;;;;;;;6.95;1.60;;;;;22.90;101225.00;;;;12687059;23;20174;-77
2022/08/21 07:42:10;;;;;;;5.22;1.90;;;;;22.70;101241.00;;;;12654683;23;20171;-78
2022/08/21 07:47:12;;;;;;;4.18;1.60;;;;;22.80;101238.00;;;;12669279;23;20266;-77
2022/08/21 07:52:15;;;;;;;7.07;1.80;;;;;23.60;101230.00;;;;12692695;23;20568;-77
2022/08/21 07:57:16;;;;;;;12.55;1.60;;;;;24.30;101227.00;;;;12621519;23;20736;-78
2022/08/21 08:02:28;;;;;;;9.48;2.38;;;;;24.90;101222.00;;;;12620358;23;20248;-78
2022/08/21 08:07:30;;;;;;;7.25;2.10;;;;;25.50;101221.00;;;;12667226;23;20233;-78
2022/08/21 08:12:37;;;;;;;6.05;1.73;;;;;25.70;101218.00;;;;12641576;23;20203;-76
2022/08/21 08:17:39;;;;;;;5.93;1.90;;;;;25.20;101218.00;;;;12737552;23;20215;-75
2022/08/21 08:22:42;;;;;;;7.15;2.35;;;;;24.70;101211.00;;;;12661987;23;20213;-78
2022/08/21 08:27:54;;;;;;;8.73;2.15;;;;;24.40;101200.00;;;;12644621;23;20644;-75
2022/08/21 08:32:57;;;;;;;7.80;1.70;;;;;24.40;101195.00;;;;12664338;23;20234;-78
2022/08/21 08:38:03;;;;;;;7.22;1.77;;;;;24.40;101200.00;;;;12711430;23;20167;-78
2022/08/21 08:43:05;;;;;;;7.53;1.88;;;;;24.70;101199.00;;;;12618467;23;20183;-76
2022/08/21 08:48:12;;;;;;;8.35;1.65;;;;;25.40;101196.00;;;;12617727;23;20210;-77
2022/08/21 08:53:24;;;;;;;8.52;2.03;;;;;26.10;101199.00;;;;12663624;23;20196;-77
2022/08/21 08:58:32;;;;;;;8.07;2.08;;;;;26.60;101195.00;;;;12642473;23;20187;-77
2022/08/21 09:03:35;;;;;;;6.75;1.83;;;;;26.60;101197.00;;;;12688617;23;20559;-76
2022/08/21 09:08:54;;;;;;;7.40;2.17;;;;;27.20;101195.00;;;;12643856;23;20188;-76
2022/08/21 09:13:59;;;;;;;5.28;1.75;;;;;27.50;101191.00;;;;12672861;23;20180;-76
2022/08/21 09:19:28;;;;;;;4.28;1.70;;;;;27.70;101178.00;;;;12671271;23;20250;-75
2022/08/21 09:24:51;;;;;;;7.07;1.58;;;;;27.70;101183.00;;;;12648276;23;20170;-76
2022/08/21 09:29:54;;;;;;;8.23;2.00;;;;;27.80;101171.00;;;;12696900;23;20162;-76
2022/08/21 09:35:19;;;;;;;7.07;1.98;;;;;28.80;101180.00;;;;12821057;23;20264;-75
2022/08/21 09:40:33;;;;;;;5.47;1.85;;;;;30.20;101174.00;;;;12717274;23;20164;-76
2022/08/21 09:45:35;;;;;;;6.30;1.77;;;;;31.20;101172.00;;;;12648022;23;20168;-76
2022/08/21 09:50:38;;;;;;;6.97;1.92;;;;;30.40;101168.00;;;;12670959;23;20586;-76
2022/08/21 10:01:21;;;;;;;7.25;1.90;;;;;27.70;101162.00;;;;12670614;23;20160;-76
2022/08/21 10:06:26;;;;;;;8.82;2.10;;;;;27.00;101160.00;;;;12624738;23;20187;-75
2022/08/21 10:11:30;;;;;;;6.93;1.83;;;;;26.70;101152.00;;;;12650080;23;20582;-75
2022/08/21 10:16:56;;;;;;;5.78;1.98;;;;;25.80;101157.00;;;;12650575;23;20175;-76
2022/08/21 10:22:07;;;;;;;5.45;1.77;;;;;25.50;101145.00;;;;12694975;23;20239;-75
2022/08/21 10:27:51;;;;;;;5.82;1.70;;;;;26.60;101150.00;;;;12650185;23;20645;-75
2022/08/21 10:32:56;;;;;;;8.65;2.15;;;;;28.10;101139.00;;;;12704387;23;20234;-75
2022/08/21 10:38:35;;;;;;;6.60;2.13;;;;;28.50;101136.00;;;;12694882;23;20603;-76
2022/08/21 10:44:34;;;;;;;7.53;2.10;;;;;28.30;101148.00;;;;12653818;23;20168;-76
2022/08/21 10:50:03;;;;;;;8.02;2.38;;;;;27.40;101143.00;;;;12694973;23;20214;-76
2022/08/21 10:55:17;;;;;;;5.43;1.88;;;;;28.90;101137.00;;;;12717655;23;20245;-76
2022/08/21 11:00:22;;;;;;;7.05;1.98;;;;;30.00;101146.00;;;;12649812;23;20303;-76
2022/08/21 11:05:30;;;;;;;6.65;2.10;;;;;30.70;101141.00;;;;12745907;23;20199;-75
2022/08/21 11:10:35;;;;;;;8.82;2.28;;;;;31.30;101139.00;;;;12653522;23;20270;-76
2022/08/21 11:16:00;;;;;;;7.72;2.33;;;;;32.10;101132.00;;;;12698754;23;20497;-76
2022/08/21 11:21:32;;;;;;;8.73;2.20;;;;;32.90;101136.00;;;;12649594;23;20172;-75
2022/08/21 11:26:51;;;;;;;8.82;2.50;;;;;33.50;101141.00;;;;12649872;23;20180;-75
2022/08/21 11:32:23;;;;;;;5.60;1.95;;;;;31.80;101133.00;;;;12717377;23;20233;-76
2022/08/21 11:37:59;;;;;;;4.40;1.90;;;;;31.40;101134.00;;;;12673443;23;20175;-76
2022/08/21 11:43:33;;;;;;;5.55;2.13;;;;;31.40;101125.00;;;;12669375;23;20160;-76
2022/08/21 11:48:54;;;;;;;8.73;2.40;;;;;31.50;101129.00;;;;12683876;23;20194;-76
2022/08/21 11:54:00;;;;;;;5.57;1.75;;;;;31.10;101122.00;;;;12625086;23;20203;-76
2022/08/21 11:59:08;;;;;;;5.93;1.80;;;;;29.00;101113.00;;;;12673499;23;20678;-76
2022/08/21 12:04:32;;;;;;;7.80;1.80;;;;;28.50;101100.00;;;;12673273;23;20217;-76
2022/08/21 12:09:36;;;;;;;7.72;1.90;;;;;28.00;101112.00;;;;12672746;23;20172;-76
2022/08/21 12:14:45;;;;;;;7.28;1.80;;;;;30.30;101085.00;;;;12716764;23;20237;-76
2022/08/21 12:20:14;;;;;;;7.25;2.22;;;;;32.50;101094.00;;;;12672789;23;20672;-76
2022/08/21 12:25:18;;;;;;;6.32;2.03;;;;;33.20;101107.00;;;;12648940;23;20945;-76
2022/08/21 12:30:26;;;;;;;5.70;1.70;;;;;33.90;101108.00;;;;12716975;23;20183;-77
2022/08/21 12:35:38;;;;;;;6.93;2.20;;;;;33.70;101117.00;;;;12693229;23;20160;-77
2022/08/21 12:40:45;;;;;;;5.65;2.05;;;;;31.20;101124.00;;;;12692842;23;20168;-77
2022/08/21 12:45:50;;;;;;;7.65;2.20;;;;;28.90;101119.00;;;;12671978;23;20198;-77
2022/08/21 12:50:56;;;;;;;7.38;1.98;;;;;27.40;101129.00;;;;12648026;23;20638;-77
2022/08/21 12:56:08;;;;;;;7.28;1.75;;;;;27.50;101119.00;;;;12718201;23;20275;-76
2022/08/21 13:01:49;;;;;;;5.47;1.60;;;;;29.00;101123.00;;;;12717913;23;20191;-77
2022/08/21 13:06:54;;;;;;;8.27;1.95;;;;;28.50;101124.00;;;;12675567;23;20206;-77
2022/08/21 13:11:57;;;;;;;5.10;1.70;;;;;27.90;101119.00;;;;12649740;23;20236;-76
2022/08/21 13:17:00;;;;;;;5.03;1.67;;;;;27.70;101115.00;;;;12649309;23;20191;-77
2022/08/21 13:22:03;;;;;;;8.07;2.08;;;;;28.00;101121.00;;;;12649627;23;20615;-77
2022/08/21 13:27:30;;;;;;;8.98;1.58;;;;;29.10;101116.00;;;;12677438;23;20179;-76
2022/08/21 13:32:37;;;;;;;9.07;1.95;;;;;30.50;101112.00;;;;12673306;23;20278;-76
2022/08/21 13:37:41;;;;;;;5.43;1.95;;;;;29.70;101107.00;;;;12693512;23;20247;-77
2022/08/21 13:42:46;;;;;;;5.20;1.58;;;;;28.90;101110.00;;;;12647895;23;20203;-76
2022/08/21 13:47:48;;;;;;;7.80;2.00;;;;;28.80;101111.00;;;;12774822;23;20202;-77
2022/08/21 13:53:04;;;;;;;5.22;1.90;;;;;29.50;101114.00;;;;12743674;23;20674;-77
2022/08/21 13:58:08;;;;;;;5.13;1.90;;;;;28.00;101096.00;;;;12672317;23;20185;-76
2022/08/21 14:03:15;;;;;;;6.40;1.95;;;;;28.30;101094.00;;;;12697459;23;20191;-76
2022/08/21 14:08:31;;;;;;;5.82;1.95;;;;;29.70;101083.00;;;;12693442;23;20196;-77
2022/08/21 14:13:46;;;;;;;4.63;1.80;;;;;29.70;101081.00;;;;12718371;23;20179;-76
2022/08/21 14:18:59;;;;;;;5.93;1.65;;;;;29.80;101093.00;;;;12697443;23;20190;-76
2022/08/21 14:24:13;;;;;;;4.57;1.77;;;;;30.50;101088.00;;;;12673484;23;20191;-76
2022/08/21 14:29:24;;;;;;;8.00;1.92;;;;;29.00;101103.00;;;;12717372;23;20178;-76
2022/08/21 14:34:28;;;;;;;8.15;1.70;;;;;29.00;101096.00;;;;12648534;23;20184;-76
2022/08/21 14:39:36;;;;;;;6.28;1.88;;;;;28.30;101090.00;;;;12650054;23;20168;-76
2022/08/21 14:44:38;;;;;;;7.32;2.00;;;;;27.30;101107.00;;;;12672443;23;20178;-76
2022/08/21 14:49:40;;;;;;;5.88;1.83;;;;;26.80;101086.00;;;;12648790;23;20255;-76
2022/08/21 14:54:42;;;;;;;8.50;2.25;;;;;26.30;101081.00;;;;12650988;23;20550;-76
2022/08/21 14:59:44;;;;;;;6.63;2.45;;;;;26.70;101083.00;;;;12720215;23;20172;-76
2022/08/21 15:04:46;;;;;;;9.48;2.05;;;;;27.70;101076.00;;;;12747313;23;20690;-76
2022/08/21 15:09:48;;;;;;;6.47;2.10;;;;;27.80;101080.00;;;;12651432;23;20172;-76
2022/08/21 15:14:50;;;;;;;9.38;1.92;;;;;27.70;101079.00;;;;12650850;23;20522;-76
2022/08/21 15:19:52;;;;;;;5.43;1.90;;;;;27.80;101077.00;;;;12674859;23;20175;-76
2022/08/21 15:24:54;;;;;;;8.02;1.95;;;;;27.20;101074.00;;;;12700050;23;20175;-76
2022/08/21 15:29:56;;;;;;;7.40;2.15;;;;;26.90;101065.00;;;;12650488;23;20163;-76
2022/08/21 15:34:58;;;;;;;6.75;2.03;;;;;26.60;101065.00;;;;12698931;23;20209;-76
2022/08/21 15:40:00;;;;;;;3.22;1.55;;;;;26.10;101059.00;;;;12674972;23;20187;-76
2022/08/21 15:45:03;;;;;;;4.93;1.75;;;;;26.10;101058.00;;;;12627096;23;20206;-75
2022/08/21 15:50:07;;;;;;;6.65;2.17;;;;;26.10;101074.00;;;;12699635;23;20218;-76
2022/08/21 15:55:11;;;;;;;5.85;2.30;;;;;26.10;101063.00;;;;12652064;23;20207;-76
2022/08/21 16:00:22;;;;;;;6.50;2.10;;;;;26.00;101063.00;;;;12676087;23;20682;-76
2022/08/21 16:05:24;;;;;;;6.55;2.00;;;;;25.80;101065.00;;;;12678002;23;20779;-76
2022/08/21 16:10:27;;;;;;;6.47;2.03;;;;;25.50;101059.00;;;;12650661;23;20527;-76
2022/08/21 16:15:31;;;;;;;9.65;1.92;;;;;25.10;101053.00;;;;12745986;23;20179;-76
2022/08/21 16:20:33;;;;;;;5.45;1.85;;;;;24.90;101051.00;;;;12651422;23;20171;-76
2022/08/21 16:25:38;;;;;;;6.15;1.95;;;;;24.70;101056.00;;;;12675185;23;20619;-76
2022/08/21 16:30:44;;;;;;;6.03;1.88;;;;;24.40;101055.00;;;;12695127;23;20156;-75
2022/08/21 16:35:46;;;;;;;7.45;2.15;;;;;24.20;101050.00;;;;12675648;23;20229;-76
2022/08/21 16:40:49;;;;;;;6.03;2.20;;;;;24.10;101048.00;;;;12700481;23;20176;-76
2022/08/21 16:45:52;;;;;;;7.85;1.92;;;;;23.80;101051.00;;;;12698747;23;20607;-76
2022/08/21 16:50:56;;;;;;;8.02;2.22;;;;;23.70;101042.00;;;;12652055;23;20176;-77
2022/08/21 16:56:00;;;;;;;6.72;1.80;;;;;23.60;101049.00;;;;12675302;23;20203;-76
2022/08/21 17:01:05;;;;;;;6.05;1.90;;;;;23.50;101046.00;;;;12696503;23;20206;-76
2022/08/21 17:06:09;;;;;;;9.20;2.40;;;;;23.60;101041.00;;;;12652084;23;20203;-76
2022/08/21 17:11:33;;;;;;;5.88;2.08;;;;;23.80;101056.00;;;;12720124;23;20251;-76
2022/08/21 17:16:41;;;;;;;7.28;1.92;;;;;23.90;101045.00;;;;12651465;23;20163;-76
2022/08/21 17:21:43;;;;;;;6.65;1.88;;;;;23.90;101049.00;;;;12675706;23;20246;-76
2022/08/21 17:26:46;;;;;;;6.15;2.40;;;;;23.90;101041.00;;;;12671639;23;20163;-76
2022/08/21 17:31:49;;;;;;;9.27;2.00;;;;;23.80;101045.00;;;;12672469;23;20499;-76
2022/08/21 17:36:51;;;;;;;9.48;2.10;;;;;23.60;101052.00;;;;12720088;23;20159;-76
2022/08/21 17:41:55;;;;;;;12.10;2.40;;;;;23.40;101053.00;;;;12650905;23;20168;-76
2022/08/21 17:46:59;;;;;;;7.35;2.35;;;;;23.20;101056.00;;;;12699712;23;20160;-76
2022/08/21 17:52:01;;;;;;;8.85;1.95;;;;;23.00;101053.00;;;;12673400;23;20222;-76
2022/08/21 17:57:04;;;;;;;6.43;2.25;;;;;22.80;101051.00;;;;12651592;23;20263;-76
2022/08/21 18:02:06;;;;;;;7.68;2.60;;;;;22.60;101050.00;;;;12720151;23;20152;-76
2022/08/21 18:07:20;;;;;;;6.57;2.17;;;;;22.40;101042.00;;;;12721871;23;20514;-76
2022/08/21 18:12:34;;;;;;;5.65;1.70;;;;;22.20;101040.00;;;;12652306;23;20184;-77
2022/08/21 18:17:36;;;;;;;13.02;2.85;;;;;22.00;101042.00;;;;12674111;23;20225;-76
2022/08/21 18:22:37;;;;;;;6.57;2.33;;;;;21.80;101046.00;;;;12650727;23;20221;-76
2022/08/21 18:27:44;;;;;;;6.90;2.30;;;;;21.50;101046.00;;;;12720092;23;20172;-76
2022/08/21 18:32:46;;;;;;;6.95;2.28;;;;;21.40;101048.00;;;;12747376;23;20190;-76
2022/08/21 18:37:48;;;;;;;8.35;2.35;;;;;21.20;101049.00;;;;12721527;23;20599;-76
2022/08/21 18:42:50;;;;;;;12.43;2.28;;;;;21.00;101057.00;;;;12652213;23;20171;-76
2022/08/21 18:47:57;;;;;;;8.40;2.05;;;;;20.90;101051.00;;;;12720851;23;20239;-76
2022/08/21 18:52:59;;;;;;;7.95;2.30;;;;;20.70;101052.00;;;;12722266;23;20198;-77
2022/08/21 18:58:02;;;;;;;7.70;2.53;;;;;20.60;101055.00;;;;12655335;23;20255;-77
2022/08/21 19:03:04;;;;;;;9.00;2.75;;;;;20.50;101061.00;;;;12632391;23;20188;-77
2022/08/21 19:08:14;;;;;;;10.70;2.42;;;;;20.40;101067.00;;;;12679664;23;20175;-77
2022/08/21 19:13:19;;;;;;;8.13;4.00;;;;;20.30;101076.00;;;;12676457;23;20243;-77
2022/08/21 19:18:24;;;;;;;7.57;2.63;;;;;20.30;101076.00;;;;12679161;23;20171;-77
2022/08/21 19:23:29;;;;;;;8.77;2.80;;;;;20.20;101086.00;;;;12679270;23;20645;-77
2022/08/21 19:28:39;;;;;;;11.05;2.45;;;;;20.20;101076.00;;;;12654958;23;20221;-77
2022/08/21 19:33:49;;;;;;;10.57;2.75;;;;;20.10;101089.00;;;;12724036;23;20176;-77
2022/08/21 19:38:51;;;;;;;9.57;2.80;;;;;20.10;101094.00;;;;12698311;23;20160;-77
2022/08/21 19:43:58;;;;;;;7.75;2.38;;;;;20.00;101094.00;;;;12678089;23;20167;-77
2022/08/21 19:49:07;;;;;;;8.68;2.70;;;;;20.00;101093.00;;;;12678507;23;20578;-77
2022/08/21 19:54:20;;;;;;;8.25;3.20;;;;;19.90;101099.00;;;;12654099;23;20196;-77
2022/08/21 19:59:24;;;;;;;9.50;2.90;;;;;19.90;101089.00;;;;12674959;23;20167;-77
2022/08/21 20:04:26;;;;;;;6.53;2.65;;;;;19.80;101102.00;;;;12692666;23;20180;-77
2022/08/21 20:09:28;;;;;;;12.02;3.40;;;;;19.80;101113.00;;;;12697786;23;20620;-77
2022/08/21 20:14:32;;;;;;;12.35;3.13;;;;;19.70;101106.00;;;;12677793;23;20187;-77
2022/08/21 20:19:35;;;;;;;13.05;3.28;;;;;19.70;101110.00;;;;12678286;23;20172;-77
2022/08/21 20:24:40;;;;;;;9.40;2.70;;;;;19.60;101117.00;;;;12677092;23;20247;-77
2022/08/21 20:29:43;;;;;;;8.43;2.92;;;;;19.50;101114.00;;;;12652209;23;20297;-77
2022/08/21 20:34:45;;;;;;;8.38;3.20;;;;;19.40;101103.00;;;;12675959;23;20187;-77
2022/08/21 20:39:53;;;;;;;9.90;2.80;;;;;19.30;101101.00;;;;12722395;23;20148;-77
2022/08/21 20:44:55;;;;;;;7.82;3.13;;;;;19.20;101088.00;;;;12651562;23;20175;-77
2022/08/21 20:50:01;;;;;;;11.43;3.25;;;;;19.10;101094.00;;;;12697911;23;20630;-76
2022/08/21 20:55:11;;;;;;;11.68;3.22;;;;;19.10;101096.00;;;;12699117;23;20195;-78
2022/08/21 21:00:16;;;;;;;5.88;2.75;;;;;19.10;101093.00;;;;12676952;23;20640;-78
2022/08/21 21:05:30;;;;;;;14.38;3.25;;;;;19.00;101095.00;;;;12677488;23;20230;-77
2022/08/21 21:10:39;;;;;;;10.52;2.95;;;;;18.90;101091.00;;;;12720277;23;20179;-78
2022/08/21 21:15:50;;;;;;;7.95;2.88;;;;;18.90;101091.00;;;;12720745;23;20175;-77
2022/08/21 21:21:09;;;;;;;8.68;3.05;;;;;18.80;101094.00;;;;12672504;23;20259;-77
2022/08/21 21:26:20;;;;;;;7.90;3.15;;;;;18.70;101088.00;;;;12623895;23;20185;-76
2022/08/21 21:31:25;;;;;;;8.32;2.25;;;;;18.70;101096.00;;;;12671085;23;20168;-76
2022/08/21 21:36:38;;;;;;;7.45;2.92;;;;;18.60;101090.00;;;;12622943;23;20189;-76
2022/08/21 21:42:15;;;;;;;8.38;2.85;;;;;18.60;101107.00;;;;12673696;23;20222;-76
2022/08/21 21:47:42;;;;;;;7.82;2.70;;;;;18.50;101106.00;;;;12647303;23;20545;-76
2022/08/21 21:52:56;;;;;;;7.03;2.75;;;;;18.50;101099.00;;;;12670873;23;20646;-76
2022/08/21 21:58:02;;;;;;;10.68;3.35;;;;;18.40;101093.00;;;;12626936;23;20191;-77
2022/08/21 22:03:12;;;;;;;9.35;3.50;;;;;18.40;101091.00;;;;12693543;23;20152;-76
2022/08/21 22:08:23;;;;;;;9.57;3.45;;;;;18.30;101095.00;;;;12673882;23;20574;-77
2022/08/21 22:13:50;;;;;;;6.03;3.17;;;;;18.30;101103.00;;;;12696749;23;20179;-78
2022/08/21 22:19:01;;;;;;;7.47;3.20;;;;;18.30;101102.00;;;;12699445;23;20607;-76
2022/08/21 22:24:12;;;;;;;9.30;3.03;;;;;18.20;101110.00;;;;12628570;23;20175;-76
2022/08/21 22:29:21;;;;;;;7.18;3.45;;;;;18.20;101105.00;;;;12717521;23;20174;-76
2022/08/21 22:34:23;;;;;;;5.60;2.97;;;;;18.20;101111.00;;;;12693652;23;20241;-76
2022/08/21 22:39:34;;;;;;;7.10;2.90;;;;;18.10;101103.00;;;;12717799;23;20255;-76
2022/08/21 22:45:08;;;;;;;5.40;2.97;;;;;18.10;101106.00;;;;12694166;23;20164;-77
2022/08/21 22:50:31;;;;;;;6.07;2.95;;;;;18.00;101107.00;;;;12674008;23;20212;-76
2022/08/21 22:55:53;;;;;;;7.93;3.42;;;;;17.90;101102.00;;;;12719274;23;20184;-76
2022/08/21 23:01:17;;;;;;;9.88;3.67;;;;;17.90;101103.00;;;;12649099;23;20179;-76
2022/08/21 23:06:33;;;;;;;8.32;3.03;;;;;17.80;101104.00;;;;12719765;23;20174;-76
2022/08/21 23:11:39;;;;;;;6.32;3.08;;;;;17.80;101113.00;;;;12673282;23;20203;-76
2022/08/21 23:17:07;;;;;;;10.27;3.25;;;;;17.70;101107.00;;;;12648760;23;20581;-76
2022/08/21 23:22:25;;;;;;;7.30;3.33;;;;;17.70;101100.00;;;;12675022;23;20172;-76
2022/08/21 23:27:42;;;;;;;6.15;2.72;;;;;17.60;101112.00;;;;12717740;23;20562;-76
2022/08/21 23:32:44;;;;;;;11.00;4.15;;;;;17.60;101107.00;;;;12674280;23;20180;-76
2022/08/21 23:38:02;;;;;;;6.60;3.20;;;;;17.60;101107.00;;;;12696452;23;20171;-76
2022/08/21 23:43:43;;;;;;;8.88;3.70;;;;;17.50;101106.00;;;;12701871;23;20245;-76
2022/08/21 23:49:05;;;;;;;8.10;3.38;;;;;17.40;101102.00;;;;12670767;23;20160;-76
2022/08/21 23:54:22;;;;;;;7.88;3.75;;;;;17.40;101105.00;;;;12674006;23;20221;-76
